sensor_id;sensor_type;location;lat;lon;timestamp;pressure;altitude;pressure_sealevel;temperature;humidity
59873;BME280;50750;51.636;4.948;2022-08-19T00:01:46;101493.77;;;25.64;54.39
59873;BME280;50750;51.636;4.948;2022-08-19T00:04:15;101493.29;;;25.64;54.40
59873;BME280;50750;51.636;4.948;2022-08-19T00:06:43;101493.33;;;25.63;54.49
59873;BME280;50750;51.636;4.948;2022-08-19T00:09:15;101495.70;;;25.63;54.46
59873;BME280;50750;51.636;4.948;2022-08-19T00:11:43;101498.94;;;25.63;54.37
59873;BME280;50750;51.636;4.948;2022-08-19T00:14:11;101500.44;;;25.62;54.46
59873;BME280;50750;51.636;4.948;2022-08-19T00:16:39;101495.59;;;25.62;54.32
59873;BME280;50750;51.636;4.948;2022-08-19T00:19:07;101495.79;;;25.62;54.34
59873;BME280;50750;51.636;4.948;2022-08-19T00:21:34;101499.55;;;25.62;54.39
59873;BME280;50750;51.636;4.948;2022-08-19T00:24:07;101501.20;;;25.61;54.40
59873;BME280;50750;51.636;4.948;2022-08-19T00:26:35;101498.30;;;25.62;54.47
59873;BME280;50750;51.636;4.948;2022-08-19T00:29:03;101493.84;;;25.62;54.46
59873;BME280;50750;51.636;4.948;2022-08-19T00:31:31;101488.69;;;25.61;54.35
59873;BME280;50750;51.636;4.948;2022-08-19T00:33:57;101484.06;;;25.61;54.48
59873;BME280;50750;51.636;4.948;2022-08-19T00:36:24;101482.44;;;25.61;54.44
59873;BME280;50750;51.636;4.948;2022-08-19T00:38:51;101482.66;;;25.60;54.33
59873;BME280;50750;51.636;4.948;2022-08-19T00:41:20;101483.17;;;25.60;54.35
59873;BME280;50750;51.636;4.948;2022-08-19T00:43:59;101485.38;;;25.60;54.33
59873;BME280;50750;51.636;4.948;2022-08-19T00:46:26;101483.25;;;25.59;54.33
59873;BME280;50750;51.636;4.948;2022-08-19T00:48:54;101485.47;;;25.59;54.31
59873;BME280;50750;51.636;4.948;2022-08-19T00:51:20;101485.12;;;25.59;54.40
59873;BME280;50750;51.636;4.948;2022-08-19T00:53:48;101482.80;;;25.58;54.32
59873;BME280;50750;51.636;4.948;2022-08-19T00:56:14;101485.52;;;25.58;54.12
59873;BME280;50750;51.636;4.948;2022-08-19T00:58:41;101487.49;;;25.58;54.19
59873;BME280;50750;51.636;4.948;2022-08-19T01:01:08;101487.68;;;25.57;54.22
59873;BME280;50750;51.636;4.948;2022-08-19T01:03:35;101489.14;;;25.57;54.17
59873;BME280;50750;51.636;4.948;2022-08-19T01:06:01;101485.38;;;25.57;54.30
59873;BME280;50750;51.636;4.948;2022-08-19T01:08:28;101476.83;;;25.56;54.19
59873;BME280;50750;51.636;4.948;2022-08-19T01:10:58;101477.40;;;25.56;54.35
59873;BME280;50750;51.636;4.948;2022-08-19T01:13:28;101476.46;;;25.57;54.29
59873;BME280;50750;51.636;4.948;2022-08-19T01:16:02;101480.09;;;25.56;54.27
59873;BME280;50750;51.636;4.948;2022-08-19T01:18:30;101482.30;;;25.56;54.15
59873;BME280;50750;51.636;4.948;2022-08-19T01:21:02;101484.09;;;25.56;54.26
59873;BME280;50750;51.636;4.948;2022-08-19T01:23:32;101481.06;;;25.56;54.26
59873;BME280;50750;51.636;4.948;2022-08-19T01:26:20;101486.06;;;25.56;54.23
59873;BME280;50750;51.636;4.948;2022-08-19T01:28:50;101488.25;;;25.55;54.11
59873;BME280;50750;51.636;4.948;2022-08-19T01:31:22;101490.03;;;25.55;54.16
59873;BME280;50750;51.636;4.948;2022-08-19T01:33:51;101487.56;;;25.55;54.26
59873;BME280;50750;51.636;4.948;2022-08-19T01:36:28;101486.34;;;25.55;54.12
59873;BME280;50750;51.636;4.948;2022-08-19T01:38:56;101487.44;;;25.54;54.23
59873;BME280;50750;51.636;4.948;2022-08-19T01:41:22;101491.36;;;25.55;54.23
59873;BME280;50750;51.636;4.948;2022-08-19T01:43:51;101491.92;;;25.54;54.23
59873;BME280;50750;51.636;4.948;2022-08-19T01:46:18;101496.42;;;25.54;54.19
59873;BME280;50750;51.636;4.948;2022-08-19T01:48:46;101494.61;;;25.54;54.08
59873;BME280;50750;51.636;4.948;2022-08-19T01:51:13;101500.23;;;25.54;54.17
59873;BME280;50750;51.636;4.948;2022-08-19T01:53:40;101496.63;;;25.54;54.15
59873;BME280;50750;51.636;4.948;2022-08-19T01:56:07;101494.71;;;25.53;54.00
59873;BME280;50750;51.636;4.948;2022-08-19T01:58:45;101499.18;;;25.53;54.14
59873;BME280;50750;51.636;4.948;2022-08-19T02:01:14;101494.19;;;25.53;54.09
59873;BME280;50750;51.636;4.948;2022-08-19T02:03:41;101491.73;;;25.52;54.06
59873;BME280;50750;51.636;4.948;2022-08-19T02:06:07;101494.42;;;25.52;54.11
59873;BME280;50750;51.636;4.948;2022-08-19T02:08:36;101498.22;;;25.52;53.98
59873;BME280;50750;51.636;4.948;2022-08-19T02:11:04;101502.00;;;25.51;54.05
59873;BME280;50750;51.636;4.948;2022-08-19T02:13:31;101504.52;;;25.51;53.93
59873;BME280;50750;51.636;4.948;2022-08-19T02:15:58;101506.17;;;25.51;54.21
59873;BME280;50750;51.636;4.948;2022-08-19T02:18:24;101507.79;;;25.51;54.10
59873;BME280;50750;51.636;4.948;2022-08-19T02:20:52;101507.23;;;25.51;54.01
59873;BME280;50750;51.636;4.948;2022-08-19T02:23:19;101503.38;;;25.50;54.15
59873;BME280;50750;51.636;4.948;2022-08-19T02:25:47;101507.17;;;25.50;54.03
59873;BME280;50750;51.636;4.948;2022-08-19T02:28:14;101510.20;;;25.50;54.04
59873;BME280;50750;51.636;4.948;2022-08-19T02:30:41;101508.95;;;25.50;54.03
59873;BME280;50750;51.636;4.948;2022-08-19T02:33:07;101507.21;;;25.49;54.04
59873;BME280;50750;51.636;4.948;2022-08-19T02:35:34;101509.34;;;25.50;54.02
59873;BME280;50750;51.636;4.948;2022-08-19T02:38:01;101510.27;;;25.49;53.98
59873;BME280;50750;51.636;4.948;2022-08-19T02:40:50;101509.58;;;25.49;53.90
59873;BME280;50750;51.636;4.948;2022-08-19T02:43:18;101505.13;;;25.48;54.01
59873;BME280;50750;51.636;4.948;2022-08-19T02:45:47;101498.50;;;25.48;54.12
59873;BME280;50750;51.636;4.948;2022-08-19T02:48:22;101497.12;;;25.48;53.98
59873;BME280;50750;51.636;4.948;2022-08-19T02:50:51;101493.58;;;25.47;53.80
59873;BME280;50750;51.636;4.948;2022-08-19T02:53:23;101500.42;;;25.47;53.90
59873;BME280;50750;51.636;4.948;2022-08-19T02:55:50;101503.47;;;25.47;54.01
59873;BME280;50750;51.636;4.948;2022-08-19T02:58:18;101498.36;;;25.46;54.04
59873;BME280;50750;51.636;4.948;2022-08-19T03:00:47;101492.65;;;25.46;53.94
59873;BME280;50750;51.636;4.948;2022-08-19T03:03:16;101488.94;;;25.45;53.92
59873;BME280;50750;51.636;4.948;2022-08-19T03:05:42;101495.04;;;25.45;54.06
59873;BME280;50750;51.636;4.948;2022-08-19T03:08:10;101493.27;;;25.45;54.03
59873;BME280;50750;51.636;4.948;2022-08-19T03:10:43;101489.52;;;25.44;53.98
59873;BME280;50750;51.636;4.948;2022-08-19T03:13:13;101485.09;;;25.44;53.74
59873;BME280;50750;51.636;4.948;2022-08-19T03:15:46;101489.58;;;25.44;53.92
59873;BME280;50750;51.636;4.948;2022-08-19T03:18:14;101484.39;;;25.44;53.99
59873;BME280;50750;51.636;4.948;2022-08-19T03:20:47;101485.83;;;25.43;53.88
59873;BME280;50750;51.636;4.948;2022-08-19T03:23:16;101481.21;;;25.43;54.03
59873;BME280;50750;51.636;4.948;2022-08-19T03:25:46;101484.98;;;25.43;53.96
59873;BME280;50750;51.636;4.948;2022-08-19T03:28:15;101485.58;;;25.42;53.99
59873;BME280;50750;51.636;4.948;2022-08-19T03:30:43;101494.70;;;25.43;54.02
59873;BME280;50750;51.636;4.948;2022-08-19T03:33:22;101499.90;;;25.43;53.83
59873;BME280;50750;51.636;4.948;2022-08-19T03:36:03;101499.39;;;25.42;54.04
59873;BME280;50750;51.636;4.948;2022-08-19T03:38:30;101493.33;;;25.42;53.96
59873;BME280;50750;51.636;4.948;2022-08-19T03:41:02;101494.42;;;25.42;53.98
59873;BME280;50750;51.636;4.948;2022-08-19T03:43:29;101494.60;;;25.42;53.95
59873;BME280;50750;51.636;4.948;2022-08-19T03:46:04;101494.92;;;25.42;53.93
59873;BME280;50750;51.636;4.948;2022-08-19T03:48:33;101493.17;;;25.41;54.00
59873;BME280;50750;51.636;4.948;2022-08-19T03:51:00;101491.40;;;25.41;53.88
59873;BME280;50750;51.636;4.948;2022-08-19T03:53:28;101490.16;;;25.41;53.97
59873;BME280;50750;51.636;4.948;2022-08-19T03:55:56;101489.64;;;25.41;53.80
59873;BME280;50750;51.636;4.948;2022-08-19T03:58:24;101484.30;;;25.40;53.81
59873;BME280;50750;51.636;4.948;2022-08-19T04:00:50;101483.94;;;25.41;53.85
59873;BME280;50750;51.636;4.948;2022-08-19T04:03:17;101485.74;;;25.40;53.99
59873;BME280;50750;51.636;4.948;2022-08-19T04:05:45;101489.70;;;25.40;53.91
59873;BME280;50750;51.636;4.948;2022-08-19T04:08:13;101490.64;;;25.40;53.74
59873;BME280;50750;51.636;4.948;2022-08-19T04:10:47;101491.58;;;25.39;53.84
59873;BME280;50750;51.636;4.948;2022-08-19T04:13:18;101491.85;;;25.38;53.76
59873;BME280;50750;51.636;4.948;2022-08-19T04:15:45;101493.83;;;25.38;53.94
59873;BME280;50750;51.636;4.948;2022-08-19T04:18:13;101488.30;;;25.38;53.84
59873;BME280;50750;51.636;4.948;2022-08-19T04:20:41;101485.81;;;25.38;53.98
59873;BME280;50750;51.636;4.948;2022-08-19T04:23:08;101490.88;;;25.37;53.67
59873;BME280;50750;51.636;4.948;2022-08-19T04:25:40;101486.60;;;25.37;53.87
59873;BME280;50750;51.636;4.948;2022-08-19T04:28:08;101485.89;;;25.37;53.84
59873;BME280;50750;51.636;4.948;2022-08-19T04:30:45;101487.53;;;25.35;53.79
59873;BME280;50750;51.636;4.948;2022-08-19T04:33:12;101485.98;;;25.35;53.75
59873;BME280;50750;51.636;4.948;2022-08-19T04:35:44;101486.66;;;25.35;53.89
59873;BME280;50750;51.636;4.948;2022-08-19T04:38:11;101486.86;;;25.35;53.95
59873;BME280;50750;51.636;4.948;2022-08-19T04:40:47;101489.20;;;25.35;53.80
59873;BME280;50750;51.636;4.948;2022-08-19T04:43:34;101486.75;;;25.34;53.81
59873;BME280;50750;51.636;4.948;2022-08-19T04:46:10;101489.30;;;25.34;53.86
59873;BME280;50750;51.636;4.948;2022-08-19T04:48:38;101491.30;;;25.33;53.73
59873;BME280;50750;51.636;4.948;2022-08-19T04:51:10;101490.60;;;25.33;53.81
59873;BME280;50750;51.636;4.948;2022-08-19T04:53:40;101491.30;;;25.34;53.83
59873;BME280;50750;51.636;4.948;2022-08-19T04:56:10;101493.65;;;25.33;53.68
59873;BME280;50750;51.636;4.948;2022-08-19T04:58:38;101496.35;;;25.33;53.79
59873;BME280;50750;51.636;4.948;2022-08-19T05:01:07;101492.63;;;25.33;53.76
59873;BME280;50750;51.636;4.948;2022-08-19T05:03:35;101500.88;;;25.32;53.74
59873;BME280;50750;51.636;4.948;2022-08-19T05:06:06;101503.23;;;25.32;53.76
59873;BME280;50750;51.636;4.948;2022-08-19T05:08:35;101508.63;;;25.32;53.68
59873;BME280;50750;51.636;4.948;2022-08-19T05:11:09;101510.81;;;25.32;53.58
59873;BME280;50750;51.636;4.948;2022-08-19T05:13:38;101508.15;;;25.31;53.77
59873;BME280;50750;51.636;4.948;2022-08-19T05:16:05;101511.80;;;25.30;53.67
59873;BME280;50750;51.636;4.948;2022-08-19T05:18:31;101513.41;;;25.31;53.71
59873;BME280;50750;51.636;4.948;2022-08-19T05:21:19;101512.00;;;25.30;53.78
59873;BME280;50750;51.636;4.948;2022-08-19T05:24:05;101513.84;;;25.30;53.68
59873;BME280;50750;51.636;4.948;2022-08-19T05:26:39;101513.30;;;25.30;53.63
59873;BME280;50750;51.636;4.948;2022-08-19T05:29:06;101516.21;;;25.29;53.70
59873;BME280;50750;51.636;4.948;2022-08-19T05:31:35;101520.01;;;25.29;53.70
59873;BME280;50750;51.636;4.948;2022-08-19T05:34:02;101522.35;;;25.29;53.56
59873;BME280;50750;51.636;4.948;2022-08-19T05:36:34;101524.02;;;25.28;53.73
59873;BME280;50750;51.636;4.948;2022-08-19T05:39:02;101518.85;;;25.28;53.67
59873;BME280;50750;51.636;4.948;2022-08-19T05:41:30;101515.85;;;25.27;53.59
59873;BME280;50750;51.636;4.948;2022-08-19T05:43:58;101514.23;;;25.27;53.60
59873;BME280;50750;51.636;4.948;2022-08-19T05:46:27;101516.59;;;25.27;53.66
59873;BME280;50750;51.636;4.948;2022-08-19T05:48:54;101517.15;;;25.27;53.66
59873;BME280;50750;51.636;4.948;2022-08-19T05:51:23;101518.94;;;25.27;53.57
59873;BME280;50750;51.636;4.948;2022-08-19T05:53:51;101520.43;;;25.26;53.48
59873;BME280;50750;51.636;4.948;2022-08-19T05:56:18;101518.65;;;25.26;53.77
59873;BME280;50750;51.636;4.948;2022-08-19T05:58:45;101516.19;;;25.25;53.69
59873;BME280;50750;51.636;4.948;2022-08-19T06:01:14;101518.89;;;25.25;53.75
59873;BME280;50750;51.636;4.948;2022-08-19T06:03:41;101518.14;;;25.25;53.56
59873;BME280;50750;51.636;4.948;2022-08-19T06:06:10;101518.57;;;25.25;53.51
59873;BME280;50750;51.636;4.948;2022-08-19T06:08:37;101521.59;;;25.25;53.73
59873;BME280;50750;51.636;4.948;2022-08-19T06:13:44;101520.58;;;25.24;53.55
59873;BME280;50750;51.636;4.948;2022-08-19T06:16:13;101524.40;;;25.24;53.61
59873;BME280;50750;51.636;4.948;2022-08-19T06:18:46;101519.96;;;25.23;53.64
59873;BME280;50750;51.636;4.948;2022-08-19T06:21:13;101520.13;;;25.23;53.79
59873;BME280;50750;51.636;4.948;2022-08-19T06:23:40;101518.90;;;25.23;53.64
59873;BME280;50750;51.636;4.948;2022-08-19T06:26:11;101518.56;;;25.23;53.72
59873;BME280;50750;51.636;4.948;2022-08-19T06:28:38;101516.77;;;25.23;53.60
59873;BME280;50750;51.636;4.948;2022-08-19T06:31:09;101519.66;;;25.22;53.67
59873;BME280;50750;51.636;4.948;2022-08-19T06:33:36;101522.41;;;25.21;53.74
59873;BME280;50750;51.636;4.948;2022-08-19T06:36:03;101525.67;;;25.21;53.60
59873;BME280;50750;51.636;4.948;2022-08-19T06:38:31;101526.04;;;25.21;53.59
59873;BME280;50750;51.636;4.948;2022-08-19T06:41:03;101524.83;;;25.21;53.68
59873;BME280;50750;51.636;4.948;2022-08-19T06:43:30;101526.46;;;25.20;53.55
59873;BME280;50750;51.636;4.948;2022-08-19T06:45:57;101529.51;;;25.20;53.68
59873;BME280;50750;51.636;4.948;2022-08-19T06:48:25;101527.54;;;25.20;53.61
59873;BME280;50750;51.636;4.948;2022-08-19T06:50:51;101531.70;;;25.20;53.77
59873;BME280;50750;51.636;4.948;2022-08-19T06:53:18;101534.77;;;25.20;53.66
59873;BME280;50750;51.636;4.948;2022-08-19T06:55:45;101534.59;;;25.19;53.67
59873;BME280;50750;51.636;4.948;2022-08-19T06:58:12;101537.98;;;25.20;53.68
59873;BME280;50750;51.636;4.948;2022-08-19T07:00:39;101536.27;;;25.19;53.72
59873;BME280;50750;51.636;4.948;2022-08-19T07:03:06;101540.77;;;25.19;53.56
59873;BME280;50750;51.636;4.948;2022-08-19T07:05:39;101541.29;;;25.19;53.66
59873;BME280;50750;51.636;4.948;2022-08-19T07:08:06;101537.86;;;25.19;53.63
59873;BME280;50750;51.636;4.948;2022-08-19T07:10:33;101532.01;;;25.18;53.75
59873;BME280;50750;51.636;4.948;2022-08-19T07:13:01;101538.27;;;25.19;53.65
59873;BME280;50750;51.636;4.948;2022-08-19T07:15:27;101545.11;;;25.18;53.66
59873;BME280;50750;51.636;4.948;2022-08-19T07:17:54;101548.35;;;25.18;53.79
59873;BME280;50750;51.636;4.948;2022-08-19T07:20:20;101546.75;;;25.18;53.74
59873;BME280;50750;51.636;4.948;2022-08-19T07:22:47;101544.25;;;25.18;53.63
59873;BME280;50750;51.636;4.948;2022-08-19T07:25:14;101546.58;;;25.18;53.70
59873;BME280;50750;51.636;4.948;2022-08-19T07:27:42;101546.77;;;25.17;53.73
59873;BME280;50750;51.636;4.948;2022-08-19T07:30:08;101548.05;;;25.17;53.69
59873;BME280;50750;51.636;4.948;2022-08-19T07:32:36;101549.30;;;25.17;53.70
59873;BME280;50750;51.636;4.948;2022-08-19T07:35:03;101546.44;;;25.17;53.71
59873;BME280;50750;51.636;4.948;2022-08-19T07:37:30;101549.13;;;25.17;53.72
59873;BME280;50750;51.636;4.948;2022-08-19T07:39:57;101553.83;;;25.17;53.86
59873;BME280;50750;51.636;4.948;2022-08-19T07:42:24;101559.40;;;25.16;53.68
59873;BME280;50750;51.636;4.948;2022-08-19T07:44:51;101561.38;;;25.16;53.60
59873;BME280;50750;51.636;4.948;2022-08-19T07:47:18;101561.95;;;25.16;53.77
59873;BME280;50750;51.636;4.948;2022-08-19T07:49:45;101561.41;;;25.16;53.63
59873;BME280;50750;51.636;4.948;2022-08-19T07:52:11;101562.71;;;25.16;53.72
59873;BME280;50750;51.636;4.948;2022-08-19T07:54:38;101558.61;;;25.15;53.72
59873;BME280;50750;51.636;4.948;2022-08-19T07:57:07;101559.15;;;25.14;53.64
59873;BME280;50750;51.636;4.948;2022-08-19T07:59:34;101557.58;;;25.14;53.75
59873;BME280;50750;51.636;4.948;2022-08-19T08:02:01;101561.15;;;25.14;53.69
59873;BME280;50750;51.636;4.948;2022-08-19T08:04:29;101567.75;;;25.14;53.79
59873;BME280;50750;51.636;4.948;2022-08-19T08:07:15;101571.87;;;25.14;53.73
59873;BME280;50750;51.636;4.948;2022-08-19T08:10:01;101571.39;;;25.14;53.65
59873;BME280;50750;51.636;4.948;2022-08-19T08:12:32;101572.46;;;25.14;53.82
59873;BME280;50750;51.636;4.948;2022-08-19T08:15:00;101574.27;;;25.13;53.73
59873;BME280;50750;51.636;4.948;2022-08-19T08:17:31;101571.62;;;25.13;54.00
59873;BME280;50750;51.636;4.948;2022-08-19T08:19:58;101575.20;;;25.13;53.74
59873;BME280;50750;51.636;4.948;2022-08-19T08:22:25;101578.80;;;25.13;53.60
59873;BME280;50750;51.636;4.948;2022-08-19T08:25:18;101585.96;;;25.13;53.69
59873;BME280;50750;51.636;4.948;2022-08-19T08:27:46;101585.48;;;25.12;53.71
59873;BME280;50750;51.636;4.948;2022-08-19T08:30:20;101591.02;;;25.13;53.81
59873;BME280;50750;51.636;4.948;2022-08-19T08:32:47;101593.01;;;25.12;53.86
59873;BME280;50750;51.636;4.948;2022-08-19T08:35:16;101595.20;;;25.12;53.83
59873;BME280;50750;51.636;4.948;2022-08-19T08:37:45;101599.46;;;25.12;53.61
59873;BME280;50750;51.636;4.948;2022-08-19T08:40:29;101600.98;;;25.11;53.72
59873;BME280;50750;51.636;4.948;2022-08-19T08:43:03;101602.69;;;25.12;53.67
59873;BME280;50750;51.636;4.948;2022-08-19T08:45:35;101601.64;;;25.12;53.81
59873;BME280;50750;51.636;4.948;2022-08-19T08:48:18;101598.07;;;25.12;53.77
59873;BME280;50750;51.636;4.948;2022-08-19T08:50:47;101593.27;;;25.11;53.81
59873;BME280;50750;51.636;4.948;2022-08-19T08:53:18;101590.61;;;25.11;53.80
59873;BME280;50750;51.636;4.948;2022-08-19T08:55:45;101590.41;;;25.11;53.79
59873;BME280;50750;51.636;4.948;2022-08-19T08:58:24;101592.39;;;25.11;53.75
59873;BME280;50750;51.636;4.948;2022-08-19T09:00:53;101595.61;;;25.11;53.83
59873;BME280;50750;51.636;4.948;2022-08-19T09:03:23;101595.61;;;25.11;53.87
59873;BME280;50750;51.636;4.948;2022-08-19T09:11:37;101602.46;;;25.11;53.99
59873;BME280;50750;51.636;4.948;2022-08-19T09:16:37;101598.38;;;25.10;53.82
59873;BME280;50750;51.636;4.948;2022-08-19T09:19:07;101596.94;;;25.10;53.92
59873;BME280;50750;51.636;4.948;2022-08-19T09:21:34;101596.79;;;25.10;53.85
59873;BME280;50750;51.636;4.948;2022-08-19T09:24:01;101597.85;;;25.10;53.87
59873;BME280;50750;51.636;4.948;2022-08-19T09:26:28;101600.73;;;25.10;53.84
59873;BME280;50750;51.636;4.948;2022-08-19T09:28:55;101606.11;;;25.10;53.97
59873;BME280;50750;51.636;4.948;2022-08-19T09:31:27;101609.64;;;25.10;53.89
59873;BME280;50750;51.636;4.948;2022-08-19T09:33:54;101613.58;;;25.11;53.92
59873;BME280;50750;51.636;4.948;2022-08-19T09:36:27;101613.81;;;25.10;53.93
59873;BME280;50750;51.636;4.948;2022-08-19T09:38:55;101609.66;;;25.10;53.80
59873;BME280;50750;51.636;4.948;2022-08-19T09:41:23;101613.02;;;25.11;53.93
59873;BME280;50750;51.636;4.948;2022-08-19T09:43:53;101610.57;;;25.10;53.94
59873;BME280;50750;51.636;4.948;2022-08-19T09:46:24;101612.54;;;25.10;53.81
59873;BME280;50750;51.636;4.948;2022-08-19T09:48:53;101610.73;;;25.11;53.83
59873;BME280;50750;51.636;4.948;2022-08-19T09:51:24;101611.48;;;25.10;53.91
59873;BME280;50750;51.636;4.948;2022-08-19T09:53:52;101610.91;;;25.10;53.79
59873;BME280;50750;51.636;4.948;2022-08-19T09:56:21;101609.31;;;25.10;53.93
59873;BME280;50750;51.636;4.948;2022-08-19T09:58:49;101605.59;;;25.10;54.05
59873;BME280;50750;51.636;4.948;2022-08-19T10:01:26;101602.90;;;25.10;53.98
59873;BME280;50750;51.636;4.948;2022-08-19T10:03:55;101601.67;;;25.09;53.91
59873;BME280;50750;51.636;4.948;2022-08-19T10:06:25;101601.30;;;25.10;53.99
59873;BME280;50750;51.636;4.948;2022-08-19T10:08:55;101601.46;;;25.10;54.00
59873;BME280;50750;51.636;4.948;2022-08-19T10:11:22;101604.18;;;25.10;53.98
59873;BME280;50750;51.636;4.948;2022-08-19T10:13:49;101603.83;;;25.09;53.92
59873;BME280;50750;51.636;4.948;2022-08-19T10:16:19;101600.05;;;25.10;53.85
59873;BME280;50750;51.636;4.948;2022-08-19T10:18:48;101601.30;;;25.10;53.92
59873;BME280;50750;51.636;4.948;2022-08-19T10:21:22;101598.61;;;25.10;53.99
59873;BME280;50750;51.636;4.948;2022-08-19T10:23:50;101599.83;;;25.10;53.99
59873;BME280;50750;51.636;4.948;2022-08-19T10:26:28;101594.11;;;25.10;54.00
59873;BME280;50750;51.636;4.948;2022-08-19T10:28:56;101596.77;;;25.10;53.92
59873;BME280;50750;51.636;4.948;2022-08-19T10:31:28;101594.23;;;25.11;54.00
59873;BME280;50750;51.636;4.948;2022-08-19T10:33:56;101591.89;;;25.10;54.03
59873;BME280;50750;51.636;4.948;2022-08-19T10:36:34;101585.46;;;25.11;53.99
59873;BME280;50750;51.636;4.948;2022-08-19T10:39:06;101580.77;;;25.11;53.90
59873;BME280;50750;51.636;4.948;2022-08-19T10:41:35;101581.89;;;25.10;53.96
59873;BME280;50750;51.636;4.948;2022-08-19T10:44:06;101580.64;;;25.10;54.03
59873;BME280;50750;51.636;4.948;2022-08-19T10:46:36;101581.69;;;25.10;54.06
59873;BME280;50750;51.636;4.948;2022-08-19T10:49:05;101577.15;;;25.11;54.11
59873;BME280;50750;51.636;4.948;2022-08-19T10:51:32;101577.86;;;25.11;54.09
59873;BME280;50750;51.636;4.948;2022-08-19T10:54:18;101582.34;;;25.11;54.01
59873;BME280;50750;51.636;4.948;2022-08-19T10:56:44;101583.75;;;25.12;54.00
59873;BME280;50750;51.636;4.948;2022-08-19T10:59:28;101586.06;;;25.12;54.14
59873;BME280;50750;51.636;4.948;2022-08-19T11:02:00;101586.08;;;25.12;54.10
59873;BME280;50750;51.636;4.948;2022-08-19T11:04:26;101582.65;;;25.12;54.10
59873;BME280;50750;51.636;4.948;2022-08-19T11:06:53;101579.94;;;25.12;54.05
59873;BME280;50750;51.636;4.948;2022-08-19T11:09:22;101578.33;;;25.12;53.97
59873;BME280;50750;51.636;4.948;2022-08-19T11:11:53;101579.88;;;25.13;54.18
59873;BME280;50750;51.636;4.948;2022-08-19T11:14:20;101580.41;;;25.13;54.12
59873;BME280;50750;51.636;4.948;2022-08-19T11:16:48;101581.12;;;25.13;54.01
59873;BME280;50750;51.636;4.948;2022-08-19T11:19:16;101580.73;;;25.13;53.97
59873;BME280;50750;51.636;4.948;2022-08-19T11:21:47;101576.94;;;25.14;54.12
59873;BME280;50750;51.636;4.948;2022-08-19T11:24:21;101580.36;;;25.13;54.13
59873;BME280;50750;51.636;4.948;2022-08-19T11:26:52;101579.59;;;25.14;54.13
59873;BME280;50750;51.636;4.948;2022-08-19T11:29:20;101574.92;;;25.14;54.04
59873;BME280;50750;51.636;4.948;2022-08-19T11:31:49;101573.45;;;25.15;54.08
59873;BME280;50750;51.636;4.948;2022-08-19T11:34:20;101571.52;;;25.15;53.98
59873;BME280;50750;51.636;4.948;2022-08-19T11:36:48;101578.45;;;25.16;54.15
59873;BME280;50750;51.636;4.948;2022-08-19T11:39:18;101583.48;;;25.16;54.08
59873;BME280;50750;51.636;4.948;2022-08-19T11:41:45;101587.05;;;25.16;54.22
59873;BME280;50750;51.636;4.948;2022-08-19T11:44:12;101591.66;;;25.16;54.16
59873;BME280;50750;51.636;4.948;2022-08-19T11:46:42;101591.29;;;25.17;54.19
59873;BME280;50750;51.636;4.948;2022-08-19T11:49:17;101589.27;;;25.17;54.15
59873;BME280;50750;51.636;4.948;2022-08-19T11:51:46;101592.86;;;25.17;54.23
59873;BME280;50750;51.636;4.948;2022-08-19T11:54:14;101593.05;;;25.17;54.10
59873;BME280;50750;51.636;4.948;2022-08-19T11:56:42;101602.38;;;25.17;54.12
59873;BME280;50750;51.636;4.948;2022-08-19T11:59:08;101603.06;;;25.17;54.24
59873;BME280;50750;51.636;4.948;2022-08-19T12:01:36;101603.77;;;25.17;53.99
59873;BME280;50750;51.636;4.948;2022-08-19T12:04:03;101605.39;;;25.17;54.24
59873;BME280;50750;51.636;4.948;2022-08-19T12:06:33;101608.96;;;25.17;54.31
59873;BME280;50750;51.636;4.948;2022-08-19T12:09:05;101609.55;;;25.17;54.30
59873;BME280;50750;51.636;4.948;2022-08-19T12:11:32;101612.20;;;25.17;54.32
59873;BME280;50750;51.636;4.948;2022-08-19T12:13:59;101612.74;;;25.17;54.21
59873;BME280;50750;51.636;4.948;2022-08-19T12:16:28;101608.98;;;25.17;54.37
59873;BME280;50750;51.636;4.948;2022-08-19T12:18:55;101606.15;;;25.17;54.41
59873;BME280;50750;51.636;4.948;2022-08-19T12:21:25;101604.54;;;25.17;54.27
59873;BME280;50750;51.636;4.948;2022-08-19T12:23:57;101602.39;;;25.17;54.35
59873;BME280;50750;51.636;4.948;2022-08-19T12:26:25;101601.60;;;25.17;54.34
59873;BME280;50750;51.636;4.948;2022-08-19T12:28:52;101599.15;;;25.17;54.34
59873;BME280;50750;51.636;4.948;2022-08-19T12:31:19;101597.52;;;25.17;54.41
59873;BME280;50750;51.636;4.948;2022-08-19T12:33:46;101593.04;;;25.17;54.44
59873;BME280;50750;51.636;4.948;2022-08-19T12:36:15;101591.44;;;25.17;54.35
59873;BME280;50750;51.636;4.948;2022-08-19T12:38:44;101589.83;;;25.17;54.45
59873;BME280;50750;51.636;4.948;2022-08-19T12:41:13;101589.27;;;25.17;54.51
59873;BME280;50750;51.636;4.948;2022-08-19T12:43:41;101588.38;;;25.17;54.43
59873;BME280;50750;51.636;4.948;2022-08-19T12:46:09;101583.40;;;25.17;54.39
59873;BME280;50750;51.636;4.948;2022-08-19T12:48:37;101580.48;;;25.17;54.41
59873;BME280;50750;51.636;4.948;2022-08-19T12:51:10;101579.58;;;25.17;54.59
59873;BME280;50750;51.636;4.948;2022-08-19T12:53:37;101582.46;;;25.17;54.50
59873;BME280;50750;51.636;4.948;2022-08-19T12:56:04;101578.48;;;25.17;54.63
59873;BME280;50750;51.636;4.948;2022-08-19T12:58:31;101575.11;;;25.17;54.56
59873;BME280;50750;51.636;4.948;2022-08-19T13:01:10;101575.65;;;25.17;54.49
59873;BME280;50750;51.636;4.948;2022-08-19T13:03:38;101571.27;;;25.16;54.62
59873;BME280;50750;51.636;4.948;2022-08-19T13:06:04;101570.69;;;25.16;54.72
59873;BME280;50750;51.636;4.948;2022-08-19T13:08:31;101567.98;;;25.17;54.57
59873;BME280;50750;51.636;4.948;2022-08-19T13:11:07;101566.59;;;25.16;54.63
59873;BME280;50750;51.636;4.948;2022-08-19T13:13:34;101569.05;;;25.17;54.68